sensor_id;sensor_type;location;lat;lon;timestamp;temperature;humidity
3418;DHT22;68007;51.312;12.372;2023-06-14T00:01:50;21.70;49.50
3418;DHT22;68007;51.312;12.372;2023-06-14T00:04:18;21.70;49.60
3418;DHT22;68007;51.312;12.372;2023-06-14T00:06:47;21.60;49.80
3418;DHT22;68007;51.312;12.372;2023-06-14T00:09:14;21.50;49.80
3418;DHT22;68007;51.312;12.372;2023-06-14T00:11:43;21.50;49.80
3418;DHT22;68007;51.312;12.372;2023-06-14T00:14:11;21.50;49.90
3418;DHT22;68007;51.312;12.372;2023-06-14T00:16:41;21.40;50.00
3418;DHT22;68007;51.312;12.372;2023-06-14T00:19:08;21.40;50.10
3418;DHT22;68007;51.312;12.372;2023-06-14T00:21:36;21.40;50.30
3418;DHT22;68007;51.312;12.372;2023-06-14T00:24:04;21.30;50.30
3418;DHT22;68007;51.312;12.372;2023-06-14T00:26:32;21.30;50.40
3418;DHT22;68007;51.312;12.372;2023-06-14T00:28:59;21.30;50.40
3418;DHT22;68007;51.312;12.372;2023-06-14T00:31:27;21.30;50.50
3418;DHT22;68007;51.312;12.372;2023-06-14T00:33:56;21.20;51.20
3418;DHT22;68007;51.312;12.372;2023-06-14T00:36:23;21.20;51.20
3418;DHT22;68007;51.312;12.372;2023-06-14T00:38:51;21.20;50.70
3418;DHT22;68007;51.312;12.372;2023-06-14T00:41:18;21.10;50.70
3418;DHT22;68007;51.312;12.372;2023-06-14T00:43:46;21.10;50.80
3418;DHT22;68007;51.312;12.372;2023-06-14T00:46:14;21.10;51.10
3418;DHT22;68007;51.312;12.372;2023-06-14T00:48:42;21.00;51.20
3418;DHT22;68007;51.312;12.372;2023-06-14T00:51:11;21.00;51.20
3418;DHT22;68007;51.312;12.372;2023-06-14T00:53:38;21.00;51.30
3418;DHT22;68007;51.312;12.372;2023-06-14T00:56:07;20.90;51.30
3418;DHT22;68007;51.312;12.372;2023-06-14T00:58:34;20.80;52.10
3418;DHT22;68007;51.312;12.372;2023-06-14T01:01:02;20.80;51.50
3418;DHT22;68007;51.312;12.372;2023-06-14T01:03:30;20.80;51.70
3418;DHT22;68007;51.312;12.372;2023-06-14T01:06:04;20.80;51.70
3418;DHT22;68007;51.312;12.372;2023-06-14T01:08:47;20.80;51.70
3418;DHT22;68007;51.312;12.372;2023-06-14T01:11:23;20.70;51.90
3418;DHT22;68007;51.312;12.372;2023-06-14T01:13:53;20.70;52.00
3418;DHT22;68007;51.312;12.372;2023-06-14T01:16:23;20.70;52.10
3418;DHT22;68007;51.312;12.372;2023-06-14T01:18:52;20.60;52.20
3418;DHT22;68007;51.312;12.372;2023-06-14T01:21:23;20.60;52.20
3418;DHT22;68007;51.312;12.372;2023-06-14T01:23:52;20.60;52.30
3418;DHT22;68007;51.312;12.372;2023-06-14T01:26:21;20.60;52.40
3418;DHT22;68007;51.312;12.372;2023-06-14T01:28:50;20.50;52.50
3418;DHT22;68007;51.312;12.372;2023-06-14T01:31:20;20.50;52.50
3418;DHT22;68007;51.312;12.372;2023-06-14T01:33:50;20.50;52.60
3418;DHT22;68007;51.312;12.372;2023-06-14T01:36:19;20.50;52.80
3418;DHT22;68007;51.312;12.372;2023-06-14T01:38:48;20.40;52.80
3418;DHT22;68007;51.312;12.372;2023-06-14T01:41:19;20.40;52.90
3418;DHT22;68007;51.312;12.372;2023-06-14T01:43:49;20.30;53.00
3418;DHT22;68007;51.312;12.372;2023-06-14T01:46:17;20.30;53.10
3418;DHT22;68007;51.312;12.372;2023-06-14T01:48:46;20.30;53.30
3418;DHT22;68007;51.312;12.372;2023-06-14T01:51:14;20.30;53.30
3418;DHT22;68007;51.312;12.372;2023-06-14T01:53:41;20.20;53.50
3418;DHT22;68007;51.312;12.372;2023-06-14T01:56:09;20.20;53.50
3418;DHT22;68007;51.312;12.372;2023-06-14T01:58:37;20.20;53.60
3418;DHT22;68007;51.312;12.372;2023-06-14T02:01:05;20.10;53.50
3418;DHT22;68007;51.312;12.372;2023-06-14T02:03:33;20.10;53.60
3418;DHT22;68007;51.312;12.372;2023-06-14T02:06:04;20.10;53.70
3418;DHT22;68007;51.312;12.372;2023-06-14T02:08:31;20.00;53.70
3418;DHT22;68007;51.312;12.372;2023-06-14T02:10:59;20.00;53.90
3418;DHT22;68007;51.312;12.372;2023-06-14T02:13:26;19.90;54.00
3418;DHT22;68007;51.312;12.372;2023-06-14T02:15:56;19.90;54.20
3418;DHT22;68007;51.312;12.372;2023-06-14T02:18:24;19.90;54.20
3418;DHT22;68007;51.312;12.372;2023-06-14T02:20:51;19.90;54.30
3418;DHT22;68007;51.312;12.372;2023-06-14T02:23:19;19.80;54.30
3418;DHT22;68007;51.312;12.372;2023-06-14T02:25:47;19.80;54.30
3418;DHT22;68007;51.312;12.372;2023-06-14T02:28:14;19.80;54.50
3418;DHT22;68007;51.312;12.372;2023-06-14T02:30:42;19.80;54.50
3418;DHT22;68007;51.312;12.372;2023-06-14T02:33:10;19.80;54.50
3418;DHT22;68007;51.312;12.372;2023-06-14T02:35:39;19.80;54.60
3418;DHT22;68007;51.312;12.372;2023-06-14T02:38:06;19.70;54.70
3418;DHT22;68007;51.312;12.372;2023-06-14T02:40:34;19.60;54.90
3418;DHT22;68007;51.312;12.372;2023-06-14T02:43:01;19.60;54.90
3418;DHT22;68007;51.312;12.372;2023-06-14T02:45:29;19.60;55.00
3418;DHT22;68007;51.312;12.372;2023-06-14T02:47:56;19.50;55.10
3418;DHT22;68007;51.312;12.372;2023-06-14T02:50:25;19.50;55.10
3418;DHT22;68007;51.312;12.372;2023-06-14T02:52:54;19.50;55.00
3418;DHT22;68007;51.312;12.372;2023-06-14T02:55:23;19.50;55.10
3418;DHT22;68007;51.312;12.372;2023-06-14T02:57:50;19.40;55.30
3418;DHT22;68007;51.312;12.372;2023-06-14T03:00:19;19.40;55.40
3418;DHT22;68007;51.312;12.372;2023-06-14T03:02:47;19.40;55.60
3418;DHT22;68007;51.312;12.372;2023-06-14T03:05:14;19.40;55.60
3418;DHT22;68007;51.312;12.372;2023-06-14T03:07:44;19.40;55.60
3418;DHT22;68007;51.312;12.372;2023-06-14T03:10:11;19.30;55.70
3418;DHT22;68007;51.312;12.372;2023-06-14T03:12:39;19.30;55.70
3418;DHT22;68007;51.312;12.372;2023-06-14T03:15:08;19.30;55.80
3418;DHT22;68007;51.312;12.372;2023-06-14T03:17:35;19.30;55.90
3418;DHT22;68007;51.312;12.372;2023-06-14T03:20:06;19.20;55.90
3418;DHT22;68007;51.312;12.372;2023-06-14T03:22:34;19.20;56.10
3418;DHT22;68007;51.312;12.372;2023-06-14T03:25:04;19.20;56.20
3418;DHT22;68007;51.312;12.372;2023-06-14T03:27:32;19.20;56.20
3418;DHT22;68007;51.312;12.372;2023-06-14T03:29:59;19.10;56.50
3418;DHT22;68007;51.312;12.372;2023-06-14T03:32:27;19.10;56.50
3418;DHT22;68007;51.312;12.372;2023-06-14T03:34:55;19.00;56.60
3418;DHT22;68007;51.312;12.372;2023-06-14T03:37:22;19.00;56.60
3418;DHT22;68007;51.312;12.372;2023-06-14T03:39:50;19.00;56.60
3418;DHT22;68007;51.312;12.372;2023-06-14T03:42:19;19.10;56.70
3418;DHT22;68007;51.312;12.372;2023-06-14T03:44:46;19.00;56.70
3418;DHT22;68007;51.312;12.372;2023-06-14T03:47:14;19.00;56.70
3418;DHT22;68007;51.312;12.372;2023-06-14T03:49:42;19.00;56.70
3418;DHT22;68007;51.312;12.372;2023-06-14T03:52:09;19.00;56.80
3418;DHT22;68007;51.312;12.372;2023-06-14T03:54:37;19.00;57.00
3418;DHT22;68007;51.312;12.372;2023-06-14T03:57:05;18.90;57.60
3418;DHT22;68007;51.312;12.372;2023-06-14T03:59:34;18.90;57.20
3418;DHT22;68007;51.312;12.372;2023-06-14T04:02:02;18.90;57.20
3418;DHT22;68007;51.312;12.372;2023-06-14T04:04:30;18.80;57.20
3418;DHT22;68007;51.312;12.372;2023-06-14T04:06:58;18.90;57.60
3418;DHT22;68007;51.312;12.372;2023-06-14T04:09:26;18.80;57.50
3418;DHT22;68007;51.312;12.372;2023-06-14T04:11:54;18.80;57.60
3418;DHT22;68007;51.312;12.372;2023-06-14T04:14:22;18.80;57.50
3418;DHT22;68007;51.312;12.372;2023-06-14T04:16:51;18.80;57.80
3418;DHT22;68007;51.312;12.372;2023-06-14T04:19:18;18.70;57.80
3418;DHT22;68007;51.312;12.372;2023-06-14T04:21:46;18.70;57.90
3418;DHT22;68007;51.312;12.372;2023-06-14T04:24:13;18.70;57.90
3418;DHT22;68007;51.312;12.372;2023-06-14T04:26:41;18.70;58.30
3418;DHT22;68007;51.312;12.372;2023-06-14T04:29:11;18.70;58.00
3418;DHT22;68007;51.312;12.372;2023-06-14T04:31:40;18.60;58.20
3418;DHT22;68007;51.312;12.372;2023-06-14T04:34:09;18.60;58.50
3418;DHT22;68007;51.312;12.372;2023-06-14T04:36:42;18.60;58.40
3418;DHT22;68007;51.312;12.372;2023-06-14T04:39:15;18.60;58.30
3418;DHT22;68007;51.312;12.372;2023-06-14T04:41:44;18.60;58.50
3418;DHT22;68007;51.312;12.372;2023-06-14T04:44:11;18.60;58.50
3418;DHT22;68007;51.312;12.372;2023-06-14T04:46:39;18.60;58.60
3418;DHT22;68007;51.312;12.372;2023-06-14T04:49:13;18.60;58.60
3418;DHT22;68007;51.312;12.372;2023-06-14T04:51:42;18.50;58.70
3418;DHT22;68007;51.312;12.372;2023-06-14T04:54:09;18.50;58.80
3418;DHT22;68007;51.312;12.372;2023-06-14T04:56:39;18.50;59.00
3418;DHT22;68007;51.312;12.372;2023-06-14T04:59:08;18.50;59.20
3418;DHT22;68007;51.312;12.372;2023-06-14T05:01:37;18.50;59.10
3418;DHT22;68007;51.312;12.372;2023-06-14T05:04:05;18.50;59.00
3418;DHT22;68007;51.312;12.372;2023-06-14T05:06:34;18.50;59.30
3418;DHT22;68007;51.312;12.372;2023-06-14T05:09:02;18.40;59.00
3418;DHT22;68007;51.312;12.372;2023-06-14T05:11:30;18.40;59.60
3418;DHT22;68007;51.312;12.372;2023-06-14T05:13:57;18.40;59.50
3418;DHT22;68007;51.312;12.372;2023-06-14T05:16:25;18.40;59.60
3418;DHT22;68007;51.312;12.372;2023-06-14T05:18:55;18.40;59.60
3418;DHT22;68007;51.312;12.372;2023-06-14T05:21:23;18.40;59.80
3418;DHT22;68007;51.312;12.372;2023-06-14T05:23:52;18.40;59.60
3418;DHT22;68007;51.312;12.372;2023-06-14T05:26:20;18.40;59.90
3418;DHT22;68007;51.312;12.372;2023-06-14T05:28:49;18.40;60.00
3418;DHT22;68007;51.312;12.372;2023-06-14T05:31:18;18.40;60.00
3418;DHT22;68007;51.312;12.372;2023-06-14T05:33:46;18.40;59.90
3418;DHT22;68007;51.312;12.372;2023-06-14T05:36:14;18.40;60.00
3418;DHT22;68007;51.312;12.372;2023-06-14T05:38:42;18.40;60.20
3418;DHT22;68007;51.312;12.372;2023-06-14T05:41:11;18.40;60.30
3418;DHT22;68007;51.312;12.372;2023-06-14T05:43:38;18.40;60.50
3418;DHT22;68007;51.312;12.372;2023-06-14T05:46:06;18.40;60.70
3418;DHT22;68007;51.312;12.372;2023-06-14T05:48:33;18.40;60.30
3418;DHT22;68007;51.312;12.372;2023-06-14T05:51:01;18.40;60.60
3418;DHT22;68007;51.312;12.372;2023-06-14T05:53:29;18.40;60.30
3418;DHT22;68007;51.312;12.372;2023-06-14T05:55:56;18.40;60.60
3418;DHT22;68007;51.312;12.372;2023-06-14T05:58:25;18.40;60.90
3418;DHT22;68007;51.312;12.372;2023-06-14T06:00:53;18.40;60.90
3418;DHT22;68007;51.312;12.372;2023-06-14T06:03:20;18.40;60.90
3418;DHT22;68007;51.312;12.372;2023-06-14T06:05:49;18.40;60.90
3418;DHT22;68007;51.312;12.372;2023-06-14T06:08:16;18.40;60.60
3418;DHT22;68007;51.312;12.372;2023-06-14T06:10:44;18.40;60.50
3418;DHT22;68007;51.312;12.372;2023-06-14T06:13:11;18.40;60.60
3418;DHT22;68007;51.312;12.372;2023-06-14T06:15:40;18.40;60.70
3418;DHT22;68007;51.312;12.372;2023-06-14T06:18:07;18.30;60.90
3418;DHT22;68007;51.312;12.372;2023-06-14T06:20:35;18.40;60.90
3418;DHT22;68007;51.312;12.372;2023-06-14T06:23:03;18.30;61.10
3418;DHT22;68007;51.312;12.372;2023-06-14T06:25:30;18.30;61.20
3418;DHT22;68007;51.312;12.372;2023-06-14T06:27:58;18.30;61.10
3418;DHT22;68007;51.312;12.372;2023-06-14T06:30:25;18.40;61.10
3418;DHT22;68007;51.312;12.372;2023-06-14T06:32:54;18.30;61.20
3418;DHT22;68007;51.312;12.372;2023-06-14T06:35:22;18.40;61.40
3418;DHT22;68007;51.312;12.372;2023-06-14T06:37:50;18.40;61.20
3418;DHT22;68007;51.312;12.372;2023-06-14T06:40:18;18.40;62.10
3418;DHT22;68007;51.312;12.372;2023-06-14T06:42:45;18.40;61.70
3418;DHT22;68007;51.312;12.372;2023-06-14T06:45:13;18.40;61.40
3418;DHT22;68007;51.312;12.372;2023-06-14T06:47:40;18.40;61.20
3418;DHT22;68007;51.312;12.372;2023-06-14T06:50:10;18.40;61.60
3418;DHT22;68007;51.312;12.372;2023-06-14T06:52:37;18.40;61.40
3418;DHT22;68007;51.312;12.372;2023-06-14T06:55:05;18.40;61.30
3418;DHT22;68007;51.312;12.372;2023-06-14T06:57:35;18.40;61.30
3418;DHT22;68007;51.312;12.372;2023-06-14T07:00:03;18.40;61.60
3418;DHT22;68007;51.312;12.372;2023-06-14T07:02:32;18.50;61.30
3418;DHT22;68007;51.312;12.372;2023-06-14T07:05:00;18.50;61.00
3418;DHT22;68007;51.312;12.372;2023-06-14T07:07:28;18.40;61.40
3418;DHT22;68007;51.312;12.372;2023-06-14T07:09:56;18.40;60.80
3418;DHT22;68007;51.312;12.372;2023-06-14T07:12:25;18.50;60.90
3418;DHT22;68007;51.312;12.372;2023-06-14T07:14:52;18.50;60.80
3418;DHT22;68007;51.312;12.372;2023-06-14T07:17:20;18.50;60.80
3418;DHT22;68007;51.312;12.372;2023-06-14T07:19:47;18.50;60.90
3418;DHT22;68007;51.312;12.372;2023-06-14T07:22:15;18.50;60.60
3418;DHT22;68007;51.312;12.372;2023-06-14T07:24:43;18.50;60.40
3418;DHT22;68007;51.312;12.372;2023-06-14T07:27:13;18.60;60.70
3418;DHT22;68007;51.312;12.372;2023-06-14T07:29:41;18.60;60.70
3418;DHT22;68007;51.312;12.372;2023-06-14T07:32:08;18.60;60.40
3418;DHT22;68007;51.312;12.372;2023-06-14T07:34:36;18.60;60.10
3418;DHT22;68007;51.312;12.372;2023-06-14T07:37:03;18.60;60.00
3418;DHT22;68007;51.312;12.372;2023-06-14T07:39:31;18.60;60.00
3418;DHT22;68007;51.312;12.372;2023-06-14T07:42:00;18.60;59.80
3418;DHT22;68007;51.312;12.372;2023-06-14T07:44:29;18.60;59.50
3418;DHT22;68007;51.312;12.372;2023-06-14T07:46:57;18.70;60.40
3418;DHT22;68007;51.312;12.372;2023-06-14T07:49:26;18.70;59.80
3418;DHT22;68007;51.312;12.372;2023-06-14T07:51:53;18.70;59.90
3418;DHT22;68007;51.312;12.372;2023-06-14T07:54:21;18.70;59.70
3418;DHT22;68007;51.312;12.372;2023-06-14T07:56:52;18.80;59.40
3418;DHT22;68007;51.312;12.372;2023-06-14T07:59:21;18.80;59.20
3418;DHT22;68007;51.312;12.372;2023-06-14T08:01:48;18.80;59.00
3418;DHT22;68007;51.312;12.372;2023-06-14T08:04:16;18.80;58.70
3418;DHT22;68007;51.312;12.372;2023-06-14T08:06:43;18.80;58.70
3418;DHT22;68007;51.312;12.372;2023-06-14T08:09:12;18.80;58.50
3418;DHT22;68007;51.312;12.372;2023-06-14T08:11:40;18.80;58.20
3418;DHT22;68007;51.312;12.372;2023-06-14T08:14:08;18.80;58.50
3418;DHT22;68007;51.312;12.372;2023-06-14T08:16:37;18.90;58.30
3418;DHT22;68007;51.312;12.372;2023-06-14T08:19:04;18.90;58.20
3418;DHT22;68007;51.312;12.372;2023-06-14T08:21:32;18.90;58.30
3418;DHT22;68007;51.312;12.372;2023-06-14T08:23:59;18.90;58.90
3418;DHT22;68007;51.312;12.372;2023-06-14T08:26:27;18.90;58.50
3418;DHT22;68007;51.312;12.372;2023-06-14T08:28:56;19.00;58.30
3418;DHT22;68007;51.312;12.372;2023-06-14T08:31:23;19.00;58.40
3418;DHT22;68007;51.312;12.372;2023-06-14T08:33:52;19.00;58.00
3418;DHT22;68007;51.312;12.372;2023-06-14T08:36:20;19.00;57.70
3418;DHT22;68007;51.312;12.372;2023-06-14T08:38:49;19.10;57.90
3418;DHT22;68007;51.312;12.372;2023-06-14T08:41:21;19.10;57.80
3418;DHT22;68007;51.312;12.372;2023-06-14T08:43:49;19.10;57.90
3418;DHT22;68007;51.312;12.372;2023-06-14T08:46:17;19.10;57.70
3418;DHT22;68007;51.312;12.372;2023-06-14T08:48:48;19.10;57.80
3418;DHT22;68007;51.312;12.372;2023-06-14T08:51:19;19.10;57.50
3418;DHT22;68007;51.312;12.372;2023-06-14T08:53:52;19.20;57.50
3418;DHT22;68007;51.312;12.372;2023-06-14T08:56:21;19.20;57.40
3418;DHT22;68007;51.312;12.372;2023-06-14T08:58:52;19.20;57.40
3418;DHT22;68007;51.312;12.372;2023-06-14T09:01:20;19.20;57.10
3418;DHT22;68007;51.312;12.372;2023-06-14T09:03:48;19.20;57.10
3418;DHT22;68007;51.312;12.372;2023-06-14T09:06:16;19.20;57.10
3418;DHT22;68007;51.312;12.372;2023-06-14T09:08:46;19.20;57.00
3418;DHT22;68007;51.312;12.372;2023-06-14T09:11:18;19.30;56.90
3418;DHT22;68007;51.312;12.372;2023-06-14T09:13:46;19.30;56.90
3418;DHT22;68007;51.312;12.372;2023-06-14T09:16:14;19.30;56.80
3418;DHT22;68007;51.312;12.372;2023-06-14T09:18:44;19.40;56.60
3418;DHT22;68007;51.312;12.372;2023-06-14T09:21:15;19.40;56.40
3418;DHT22;68007;51.312;12.372;2023-06-14T09:23:44;19.40;56.20
3418;DHT22;68007;51.312;12.372;2023-06-14T09:26:14;19.40;56.30
3418;DHT22;68007;51.312;12.372;2023-06-14T09:28:42;19.50;56.30
3418;DHT22;68007;51.312;12.372;2023-06-14T09:31:10;19.50;56.60
3418;DHT22;68007;51.312;12.372;2023-06-14T09:33:38;19.60;56.30
3418;DHT22;68007;51.312;12.372;2023-06-14T09:36:10;19.60;55.90
3418;DHT22;68007;51.312;12.372;2023-06-14T09:38:40;19.60;55.70
3418;DHT22;68007;51.312;12.372;2023-06-14T09:41:08;19.60;55.60
3418;DHT22;68007;51.312;12.372;2023-06-14T09:43:37;19.60;55.60
3418;DHT22;68007;51.312;12.372;2023-06-14T09:46:05;19.60;55.70
3418;DHT22;68007;51.312;12.372;2023-06-14T09:48:33;19.60;55.80
3418;DHT22;68007;51.312;12.372;2023-06-14T09:51:01;19.70;55.80
3418;DHT22;68007;51.312;12.372;2023-06-14T09:53:30;19.70;55.80
3418;DHT22;68007;51.312;12.372;2023-06-14T09:55:58;19.80;56.30
3418;DHT22;68007;51.312;12.372;2023-06-14T09:58:26;19.80;55.70
3418;DHT22;68007;51.312;12.372;2023-06-14T10:00:57;19.90;56.10
3418;DHT22;68007;51.312;12.372;2023-06-14T10:03:28;19.90;55.40
3418;DHT22;68007;51.312;12.372;2023-06-14T10:05:58;20.00;55.30
3418;DHT22;68007;51.312;12.372;2023-06-14T10:08:30;20.00;55.20
3418;DHT22;68007;51.312;12.372;2023-06-14T10:10:59;20.10;55.30
3418;DHT22;68007;51.312;12.372;2023-06-14T10:13:28;20.10;55.20
3418;DHT22;68007;51.312;12.372;2023-06-14T10:16:05;20.10;55.40
3418;DHT22;68007;51.312;12.372;2023-06-14T10:18:41;20.10;55.30
3418;DHT22;68007;51.312;12.372;2023-06-14T10:21:16;20.20;55.50
3418;DHT22;68007;51.312;12.372;2023-06-14T10:23:46;20.30;55.50
3418;DHT22;68007;51.312;12.372;2023-06-14T10:26:21;20.30;55.30
3418;DHT22;68007;51.312;12.372;2023-06-14T10:29:00;20.40;55.10
3418;DHT22;68007;51.312;12.372;2023-06-14T10:31:42;20.50;54.90
3418;DHT22;68007;51.312;12.372;2023-06-14T10:34:10;20.50;54.90
3418;DHT22;68007;51.312;12.372;2023-06-14T10:36:41;20.50;54.80
3418;DHT22;68007;51.312;12.372;2023-06-14T10:39:14;20.50;54.90
3418;DHT22;68007;51.312;12.372;2023-06-14T10:41:51;20.60;54.90
3418;DHT22;68007;51.312;12.372;2023-06-14T10:44:38;20.60;54.80
3418;DHT22;68007;51.312;12.372;2023-06-14T10:47:10;20.60;54.90
3418;DHT22;68007;51.312;12.372;2023-06-14T10:49:39;20.70;55.00
3418;DHT22;68007;51.312;12.372;2023-06-14T10:52:09;20.70;55.20
3418;DHT22;68007;51.312;12.372;2023-06-14T10:55:05;20.80;55.40
3418;DHT22;68007;51.312;12.372;2023-06-14T10:57:35;20.90;55.40
3418;DHT22;68007;51.312;12.372;2023-06-14T11:00:05;20.90;55.10
3418;DHT22;68007;51.312;12.372;2023-06-14T11:03:10;21.00;55.00
3418;DHT22;68007;51.312;12.372;2023-06-14T11:05:51;21.00;54.80
3418;DHT22;68007;51.312;12.372;2023-06-14T11:08:45;21.10;54.80
3418;DHT22;68007;51.312;12.372;2023-06-14T11:11:21;21.20;54.80
3418;DHT22;68007;51.312;12.372;2023-06-14T11:13:51;21.30;55.00
3418;DHT22;68007;51.312;12.372;2023-06-14T11:16:18;21.30;54.80
3418;DHT22;68007;51.312;12.372;2023-06-14T11:18:46;21.40;55.30
3418;DHT22;68007;51.312;12.372;2023-06-14T11:21:19;21.50;54.90
3418;DHT22;68007;51.312;12.372;2023-06-14T11:23:50;21.50;54.90
3418;DHT22;68007;51.312;12.372;2023-06-14T11:26:26;21.60;55.40
3418;DHT22;68007;51.312;12.372;2023-06-14T11:28:57;21.70;54.60
3418;DHT22;68007;51.312;12.372;2023-06-14T11:31:26;21.70;54.80
3418;DHT22;68007;51.312;12.372;2023-06-14T11:33:54;21.60;54.30
3418;DHT22;68007;51.312;12.372;2023-06-14T11:36:26;21.60;54.70
3418;DHT22;68007;51.312;12.372;2023-06-14T11:38:58;21.70;54.80
3418;DHT22;68007;51.312;12.372;2023-06-14T11:41:32;21.90;55.40
3418;DHT22;68007;51.312;12.372;2023-06-14T11:44:01;22.00;54.80
3418;DHT22;68007;51.312;12.372;2023-06-14T11:46:28;22.00;54.70
3418;DHT22;68007;51.312;12.372;2023-06-14T11:48:56;22.10;54.40
3418;DHT22;68007;51.312;12.372;2023-06-14T11:51:25;22.20;55.00
3418;DHT22;68007;51.312;12.372;2023-06-14T11:53:53;22.30;54.80
3418;DHT22;68007;51.312;12.372;2023-06-14T11:56:21;22.30;54.90
3418;DHT22;68007;51.312;12.372;2023-06-14T11:58:49;22.50;54.90
3418;DHT22;68007;51.312;12.372;2023-06-14T12:01:17;22.40;54.10
3418;DHT22;68007;51.312;12.372;2023-06-14T12:03:48;22.50;54.30
3418;DHT22;68007;51.312;12.372;2023-06-14T12:06:24;22.60;54.60
3418;DHT22;68007;51.312;12.372;2023-06-14T12:08:57;22.60;54.30
3418;DHT22;68007;51.312;12.372;2023-06-14T12:11:31;22.60;53.80
3418;DHT22;68007;51.312;12.372;2023-06-14T12:13:59;22.70;53.90
3418;DHT22;68007;51.312;12.372;2023-06-14T12:16:30;22.80;53.70
3418;DHT22;68007;51.312;12.372;2023-06-14T12:19:01;23.00;53.90
3418;DHT22;68007;51.312;12.372;2023-06-14T12:21:34;23.10;53.60
3418;DHT22;68007;51.312;12.372;2023-06-14T12:24:07;23.10;53.50
3418;DHT22;68007;51.312;12.372;2023-06-14T12:26:38;23.30;53.70
3418;DHT22;68007;51.312;12.372;2023-06-14T12:29:06;23.40;53.70
3418;DHT22;68007;51.312;12.372;2023-06-14T12:31:34;23.60;52.40
3418;DHT22;68007;51.312;12.372;2023-06-14T12:34:02;23.60;52.50
3418;DHT22;68007;51.312;12.372;2023-06-14T12:36:29;23.70;52.30
3418;DHT22;68007;51.312;12.372;2023-06-14T12:38:58;23.70;52.20
3418;DHT22;68007;51.312;12.372;2023-06-14T12:41:27;23.80;52.50
3418;DHT22;68007;51.312;12.372;2023-06-14T12:43:54;23.70;52.10
3418;DHT22;68007;51.312;12.372;2023-06-14T12:46:24;23.80;53.00
3418;DHT22;68007;51.312;12.372;2023-06-14T12:48:51;23.90;53.10
3418;DHT22;68007;51.312;12.372;2023-06-14T12:51:19;24.00;52.70
3418;DHT22;68007;51.312;12.372;2023-06-14T12:53:46;24.10;52.70
3418;DHT22;68007;51.312;12.372;2023-06-14T12:56:15;23.90;52.50
3418;DHT22;68007;51.312;12.372;2023-06-14T12:58:44;24.00;52.70
3418;DHT22;68007;51.312;12.372;2023-06-14T13:01:11;24.00;52.60
3418;DHT22;68007;51.312;12.372;2023-06-14T13:03:39;24.00;52.60
3418;DHT22;68007;51.312;12.372;2023-06-14T13:06:06;24.00;52.60
3418;DHT22;68007;51.312;12.372;2023-06-14T13:08:34;23.90;52.50
3418;DHT22;68007;51.312;12.372;2023-06-14T13:11:01;23.90;52.50
3418;DHT22;68007;51.312;12.372;2023-06-14T13:13:29;23.90;52.40
3418;DHT22;68007;51.312;12.372;2023-06-14T13:15:58;23.90;52.60
3418;DHT22;68007;51.312;12.372;2023-06-14T13:18:25;23.70;52.10
3418;DHT22;68007;51.312;12.372;2023-06-14T13:20:53;23.70;52.60
3418;DHT22;68007;51.312;12.372;2023-06-14T13:23:20;23.70;52.60
3418;DHT22;68007;51.312;12.372;2023-06-14T13:25:48;23.70;52.60
3418;DHT22;68007;51.312;12.372;2023-06-14T13:28:17;23.70;52.60
3418;DHT22;68007;51.312;12.372;2023-06-14T13:30:44;23.70;52.60
3418;DHT22;68007;51.312;12.372;2023-06-14T13:33:14;23.70;52.60
3418;DHT22;68007;51.312;12.372;2023-06-14T13:35:42;23.70;52.70
3418;DHT22;68007;51.312;12.372;2023-06-14T13:38:10;23.70;52.50
3418;DHT22;68007;51.312;12.372;2023-06-14T13:40:37;23.70;52.50
3418;DHT22;68007;51.312;12.372;2023-06-14T13:43:05;23.60;52.60
3418;DHT22;68007;51.312;12.372;2023-06-14T13:45:32;23.60;52.90
3418;DHT22;68007;51.312;12.372;2023-06-14T13:48:00;23.50;52.90
3418;DHT22;68007;51.312;12.372;2023-06-14T13:50:29;23.50;53.10
3418;DHT22;68007;51.312;12.372;2023-06-14T13:52:56;23.60;53.10
3418;DHT22;68007;51.312;12.372;2023-06-14T13:55:24;23.70;53.00
3418;DHT22;68007;51.312;12.372;2023-06-14T13:57:51;23.60;53.10
3418;DHT22;68007;51.312;12.372;2023-06-14T14:00:19;23.60;53.20
3418;DHT22;68007;51.312;12.372;2023-06-14T14:02:47;23.60;53.30
3418;DHT22;68007;51.312;12.372;2023-06-14T14:05:16;23.60;53.40
3418;DHT22;68007;51.312;12.372;2023-06-14T14:07:45;23.60;53.50
3418;DHT22;68007;51.312;12.372;2023-06-14T14:10:13;23.60;53.70
3418;DHT22;68007;51.312;12.372;2023-06-14T14:12:40;23.60;53.70
3418;DHT22;68007;51.312;12.372;2023-06-14T14:15:08;23.60;54.20
3418;DHT22;68007;51.312;12.372;2023-06-14T14:17:39;23.50;53.80
3418;DHT22;68007;51.312;12.372;2023-06-14T14:20:07;23.50;53.70
3418;DHT22;68007;51.312;12.372;2023-06-14T14:22:35;23.50;53.60
3418;DHT22;68007;51.312;12.372;2023-06-14T14:25:04;23.50;53.50
3418;DHT22;68007;51.312;12.372;2023-06-14T14:27:32;23.50;53.60
3418;DHT22;68007;51.312;12.372;2023-06-14T14:29:59;23.50;53.50
3418;DHT22;68007;51.312;12.372;2023-06-14T14:32:27;23.60;53.50
3418;DHT22;68007;51.312;12.372;2023-06-14T14:34:54;23.60;53.70
3418;DHT22;68007;51.312;12.372;2023-06-14T14:37:22;23.50;53.50
3418;DHT22;68007;51.312;12.372;2023-06-14T14:39:49;23.50;53.80
3418;DHT22;68007;51.312;12.372;2023-06-14T14:42:18;23.50;53.90
3418;DHT22;68007;51.312;12.372;2023-06-14T14:44:46;23.60;53.70
3418;DHT22;68007;51.312;12.372;2023-06-14T14:47:13;23.60;53.80
3418;DHT22;68007;51.312;12.372;2023-06-14T14:49:41;23.60;53.70
3418;DHT22;68007;51.312;12.372;2023-06-14T14:52:08;23.60;53.70
3418;DHT22;68007;51.312;12.372;2023-06-14T14:54:36;23.70;53.80
3418;DHT22;68007;51.312;12.372;2023-06-14T14:57:04;23.70;54.30
3418;DHT22;68007;51.312;12.372;2023-06-14T14:59:33;23.70;53.70
3418;DHT22;68007;51.312;12.372;2023-06-14T15:02:00;23.80;53.70
3418;DHT22;68007;51.312;12.372;2023-06-14T15:04:28;23.80;53.50
3418;DHT22;68007;51.312;12.372;2023-06-14T15:06:55;23.90;53.50
3418;DHT22;68007;51.312;12.372;2023-06-14T15:09:23;23.80;53.40
3418;DHT22;68007;51.312;12.372;2023-06-14T15:11:50;23.80;53.50
3418;DHT22;68007;51.312;12.372;2023-06-14T15:14:18;23.90;53.60
3418;DHT22;68007;51.312;12.372;2023-06-14T15:16:47;23.90;53.70
3418;DHT22;68007;51.312;12.372;2023-06-14T15:19:14;23.80;53.80
3418;DHT22;68007;51.312;12.372;2023-06-14T15:21:42;23.80;54.10
3418;DHT22;68007;51.312;12.372;2023-06-14T15:24:09;23.90;54.30
3418;DHT22;68007;51.312;12.372;2023-06-14T15:26:37;23.90;54.30
3418;DHT22;68007;51.312;12.372;2023-06-14T15:29:04;23.90;54.30
3418;DHT22;68007;51.312;12.372;2023-06-14T15:31:32;23.90;54.50
3418;DHT22;68007;51.312;12.372;2023-06-14T15:34:01;24.00;54.50
3418;DHT22;68007;51.312;12.372;2023-06-14T15:36:28;24.10;54.70
3418;DHT22;68007;51.312;12.372;2023-06-14T15:38:56;24.10;54.50
3418;DHT22;68007;51.312;12.372;2023-06-14T15:41:23;24.20;54.10